Time;durP1;ratioP1;P1;durP2;ratioP2;P2;SDS_P1;SDS_P2;PMS_P1;PMS_P2;Temp;Humidity;BMP_temperature;BMP_pressure;BME280_temperature;BME280_humidity;BME280_pressure;Samples;Min_cycle;Max_cycle;Signal;HPM_P1;HPM_P2
2022/12/28 00:02:35;;;;;;;35.35;13.35;;;11.20;71.10;;;;;;6062273;29;20490;-75
2022/12/28 00:05:36;;;;;;;30.05;11.63;;;11.30;71.20;;;;;;6078717;29;20099;-75
2022/12/28 00:08:37;;;;;;;29.17;10.90;;;11.30;71.20;;;;;;6061469;29;20051;-75
2022/12/28 00:11:38;;;;;;;31.15;11.40;;;11.30;71.10;;;;;;6062314;29;20043;-75
2022/12/28 00:14:39;;;;;;;25.02;10.02;;;11.30;71.00;;;;;;6060803;29;20064;-76
2022/12/28 00:17:40;;;;;;;32.08;12.27;;;11.30;70.80;;;;;;6045743;29;20058;-76
2022/12/28 00:20:41;;;;;;;31.63;11.82;;;11.30;70.50;;;;;;6059746;29;20051;-76
2022/12/28 00:23:41;;;;;;;28.52;10.25;;;11.30;70.50;;;;;;6075988;29;20071;-75
2022/12/28 00:26:42;;;;;;;25.77;10.63;;;11.20;70.40;;;;;;6059307;29;20534;-74
2022/12/28 00:29:43;;;;;;;29.15;9.95;;;11.10;70.50;;;;;;6055084;29;20024;-75
2022/12/28 00:32:44;;;;;;;28.48;10.50;;;11.10;70.50;;;;;;6058878;29;20041;-75
2022/12/28 00:35:53;;;;;;;29.65;10.30;;;11.00;70.60;;;;;;6077642;29;20044;-75
2022/12/28 00:38:54;;;;;;;28.20;11.57;;;11.00;70.70;;;;;;6076432;29;20041;-75
2022/12/28 00:41:54;;;;;;;19.20;8.98;;;10.90;70.70;;;;;;6077289;29;20108;-75
2022/12/28 00:44:55;;;;;;;28.63;10.57;;;10.80;70.80;;;;;;6060341;29;20044;-75
2022/12/28 00:47:56;;;;;;;28.48;10.57;;;10.80;70.80;;;;;;6077776;29;20152;-75
2022/12/28 00:51:10;;;;;;;25.23;9.48;;;10.90;70.90;;;;;;6061324;29;20466;-74
2022/12/28 00:54:11;;;;;;;27.88;10.38;;;10.80;70.90;;;;;;6060821;29;20041;-75
2022/12/28 00:57:12;;;;;;;24.65;9.30;;;10.80;70.90;;;;;;6077342;29;20051;-75
2022/12/28 01:00:14;;;;;;;22.52;9.65;;;10.80;71.00;;;;;;6076992;29;20040;-74
2022/12/28 01:03:14;;;;;;;19.27;8.00;;;10.80;70.90;;;;;;6059969;29;20036;-76
2022/12/28 01:06:18;;;;;;;21.77;8.98;;;10.90;71.00;;;;;;6045410;29;20044;-75
2022/12/28 01:09:19;;;;;;;20.63;8.20;;;10.80;70.70;;;;;;6061006;29;20037;-75
2022/12/28 01:12:20;;;;;;;19.92;7.80;;;10.80;70.60;;;;;;6058665;29;20069;-75
2022/12/28 01:15:23;;;;;;;25.38;9.98;;;10.70;70.40;;;;;;6060640;29;20140;-75
2022/12/28 01:18:24;;;;;;;21.73;9.88;;;10.70;70.40;;;;;;6049735;29;20087;-75
2022/12/28 01:21:27;;;;;;;24.10;8.55;;;10.70;70.30;;;;;;6052133;29;20048;-75
2022/12/28 01:24:28;;;;;;;19.58;7.93;;;10.60;70.30;;;;;;6043360;29;20068;-75
2022/12/28 01:27:29;;;;;;;23.58;8.25;;;10.60;70.30;;;;;;6074478;29;20051;-75
2022/12/28 01:30:30;;;;;;;14.77;7.28;;;10.60;70.30;;;;;;6076238;29;20441;-74
2022/12/28 01:33:32;;;;;;;23.60;9.27;;;10.50;70.30;;;;;;6059791;29;20044;-75
2022/12/28 01:36:36;;;;;;;20.98;9.88;;;10.50;70.40;;;;;;6076897;29;20426;-74
2022/12/28 01:39:39;;;;;;;21.70;7.45;;;10.40;70.30;;;;;;6061055;29;20052;-75
2022/12/28 01:42:40;;;;;;;18.17;7.90;;;10.40;70.40;;;;;;6049502;29;20092;-75
2022/12/28 01:45:51;;;;;;;18.30;8.85;;;10.30;70.50;;;;;;6055829;29;20226;-75
2022/12/28 01:48:58;;;;;;;18.80;8.25;;;10.30;70.70;;;;;;6045221;29;20048;-74
2022/12/28 01:52:13;;;;;;;20.88;9.02;;;10.30;70.80;;;;;;6059377;29;20033;-75
2022/12/28 01:55:21;;;;;;;19.30;8.63;;;10.30;70.90;;;;;;6060640;29;20128;-75
2022/12/28 01:58:27;;;;;;;17.52;8.82;;;10.30;71.00;;;;;;6078804;29;20111;-75
2022/12/28 02:01:28;;;;;;;23.85;9.38;;;10.20;71.00;;;;;;6055045;29;20039;-75
2022/12/28 02:04:29;;;;;;;25.10;8.90;;;10.20;71.10;;;;;;6065397;29;20033;-76
2022/12/28 02:07:52;;;;;;;23.92;9.32;;;10.30;71.30;;;;;;6063313;29;20120;-75
2022/12/28 02:10:53;;;;;;;21.52;9.38;;;10.30;71.40;;;;;;6063221;29;20036;-75
2022/12/28 02:13:56;;;;;;;18.27;8.95;;;10.30;71.20;;;;;;6061888;29;20064;-75
2022/12/28 02:16:58;;;;;;;20.13;8.55;;;10.30;71.30;;;;;;6047353;29;20045;-75
2022/12/28 02:19:59;;;;;;;21.67;8.82;;;10.20;71.10;;;;;;6059561;29;20047;-75
2022/12/28 02:23:07;;;;;;;21.38;8.93;;;10.30;71.20;;;;;;6052004;29;20115;-75
2022/12/28 02:26:35;;;;;;;20.95;8.25;;;10.20;71.30;;;;;;6078846;29;20053;-74
2022/12/28 02:29:48;;;;;;;24.58;9.00;;;10.20;71.30;;;;;;6077223;29;20115;-75
2022/12/28 02:33:15;;;;;;;18.02;7.72;;;10.20;71.40;;;;;;6047456;29;20037;-75
2022/12/28 02:36:24;;;;;;;16.98;8.40;;;10.20;71.30;;;;;;6062429;29;20057;-75
2022/12/28 02:39:32;;;;;;;20.63;8.25;;;10.20;71.30;;;;;;6077215;29;20049;-74
2022/12/28 02:42:35;;;;;;;28.35;7.72;;;10.20;71.30;;;;;;6062805;29;20140;-75
2022/12/28 02:50:05;;;;;;;19.25;7.25;;;10.10;71.10;;;;;;6076803;29;20047;-75
2022/12/28 02:52:53;;;;;;;20.50;7.97;;;10.10;71.00;;;;;;6061193;29;20403;-74
2022/12/28 02:56:08;;;;;;;18.90;7.38;;;10.10;71.00;;;;;;6074542;29;20104;-75
2022/12/28 02:59:35;;;;;;;14.63;6.82;;;10.10;70.90;;;;;;6077456;29;20048;-75
2022/12/28 03:03:23;;;;;;;15.77;7.05;;;10.10;70.90;;;;;;5967492;29;20054;-75
2022/12/28 03:10:48;;;;;;;15.45;6.70;;;10.10;70.60;;;;;;5978279;29;20079;-75
2022/12/28 03:14:05;;;;;;;13.07;5.55;;;10.10;70.50;;;;;;5853732;30;20056;-74
2022/12/28 03:34:05;;;;;;;9.40;4.68;;;10.00;70.00;;;;;;5855411;30;20044;-75
2022/12/28 03:37:18;;;;;;;13.02;4.70;;;10.00;69.90;;;;;;5870254;30;20151;-75
2022/12/28 03:40:38;;;;;;;8.38;4.40;;;10.10;69.80;;;;;;5949392;29;20034;-74
2022/12/28 03:43:52;;;;;;;7.47;3.55;;;10.10;69.50;;;;;;5944672;29;20536;-74
2022/12/28 03:47:08;;;;;;;6.78;3.70;;;10.10;69.00;;;;;;5944517;29;20045;-75
2022/12/28 03:50:10;;;;;;;7.55;3.53;;;10.10;68.20;;;;;;6037592;29;20045;-75
2022/12/28 03:53:12;;;;;;;11.07;3.40;;;10.00;67.70;;;;;;6053180;29;20045;-75
2022/12/28 03:56:18;;;;;;;8.85;3.90;;;10.00;67.60;;;;;;6035518;29;20041;-74
2022/12/28 03:59:20;;;;;;;5.78;3.45;;;10.00;67.70;;;;;;6049996;29;20110;-75
2022/12/28 04:02:25;;;;;;;7.80;3.53;;;10.00;67.60;;;;;;6050709;29;20455;-75
2022/12/28 04:05:26;;;;;;;4.53;2.35;;;10.00;67.30;;;;;;6051135;29;20041;-74
2022/12/28 04:08:27;;;;;;;4.95;3.08;;;9.90;67.00;;;;;;6034540;29;20041;-75
2022/12/28 04:11:28;;;;;;;4.63;2.88;;;9.90;66.80;;;;;;6048944;29;20055;-73
2022/12/28 04:14:30;;;;;;;6.57;3.03;;;9.90;66.60;;;;;;6026727;29;20038;-76
2022/12/28 04:17:31;;;;;;;4.05;2.53;;;9.80;66.60;;;;;;6027682;29;20711;-75
2022/12/28 04:20:34;;;;;;;4.25;2.67;;;9.80;66.50;;;;;;6035013;29;20120;-75
2022/12/28 04:23:35;;;;;;;4.85;2.90;;;9.80;66.40;;;;;;6036753;29;20044;-73
2022/12/28 04:26:55;;;;;;;6.25;2.90;;;9.80;66.50;;;;;;6039789;29;20029;-74
2022/12/28 04:29:56;;;;;;;5.32;2.95;;;9.80;65.90;;;;;;6051499;29;20570;-76
2022/12/28 04:32:58;;;;;;;4.63;2.30;;;9.70;65.80;;;;;;6049757;29;20356;-76
2022/12/28 04:36:10;;;;;;;6.35;2.70;;;9.70;65.70;;;;;;6051057;29;20053;-75
2022/12/28 04:39:11;;;;;;;5.78;3.10;;;9.70;65.70;;;;;;6052750;29;20132;-75
2022/12/28 04:42:12;;;;;;;6.30;2.70;;;9.70;65.60;;;;;;6052098;29;20045;-75
2022/12/28 04:45:13;;;;;;;8.82;2.55;;;9.70;65.50;;;;;;6051340;29;20040;-75
2022/12/28 04:48:14;;;;;;;4.47;2.13;;;9.70;65.50;;;;;;6044478;29;20478;-75
2022/12/28 04:51:20;;;;;;;6.82;2.97;;;9.70;65.50;;;;;;6066111;29;20069;-75
2022/12/28 04:54:21;;;;;;;7.15;3.10;;;9.70;65.50;;;;;;6051276;29;20100;-76
2022/12/28 04:57:22;;;;;;;5.07;2.65;;;9.70;65.40;;;;;;6042117;29;20047;-75
2022/12/28 05:00:23;;;;;;;10.55;2.63;;;9.70;65.10;;;;;;6048918;29;20128;-76
2022/12/28 05:03:25;;;;;;;6.55;2.78;;;9.80;64.80;;;;;;6048270;29;20064;-75
2022/12/28 05:06:26;;;;;;;7.72;3.25;;;9.70;64.70;;;;;;6049916;29;20033;-76
2022/12/28 05:09:27;;;;;;;7.07;3.20;;;9.80;64.90;;;;;;6049038;29;20127;-75
2022/12/28 05:12:28;;;;;;;3.60;2.05;;;9.80;65.00;;;;;;6031669;29;20041;-75
2022/12/28 05:15:29;;;;;;;3.90;1.95;;;9.80;65.00;;;;;;6050254;29;20049;-75
2022/12/28 05:18:30;;;;;;;12.85;3.17;;;9.80;64.80;;;;;;6047105;29;20075;-75
2022/12/28 05:21:31;;;;;;;3.38;2.00;;;9.80;64.50;;;;;;6051518;29;20037;-75
2022/12/28 05:24:31;;;;;;;6.07;2.88;;;9.80;64.10;;;;;;6034106;29;20052;-75
2022/12/28 05:27:32;;;;;;;5.18;2.25;;;9.70;63.80;;;;;;6049552;29;20043;-76
2022/12/28 05:30:33;;;;;;;2.85;1.88;;;9.70;63.80;;;;;;6052312;29;20037;-76
2022/12/28 05:33:36;;;;;;;3.85;1.98;;;9.70;63.50;;;;;;6038706;29;20040;-75
2022/12/28 05:36:38;;;;;;;4.20;2.25;;;9.70;63.40;;;;;;6053990;29;20052;-75
2022/12/28 05:39:39;;;;;;;4.30;2.22;;;9.70;63.10;;;;;;6042522;29;20563;-75
2022/12/28 05:42:40;;;;;;;3.42;2.20;;;9.60;62.90;;;;;;6056430;29;20037;-75
2022/12/28 05:45:41;;;;;;;3.47;1.80;;;9.60;62.90;;;;;;6055401;29;20033;-75
2022/12/28 05:48:42;;;;;;;4.03;2.15;;;9.60;62.80;;;;;;6059832;29;20076;-75
2022/12/28 05:51:47;;;;;;;4.22;2.28;;;9.50;62.30;;;;;;6077837;29;20108;-74
2022/12/28 05:54:48;;;;;;;8.85;2.90;;;9.50;62.10;;;;;;6062696;29;20088;-75
2022/12/28 05:57:49;;;;;;;7.10;2.83;;;9.50;62.20;;;;;;6078567;29;20036;-75
2022/12/28 06:00:50;;;;;;;3.53;2.10;;;9.40;62.20;;;;;;6051379;29;20093;-74
2022/12/28 06:03:59;;;;;;;4.03;2.38;;;9.30;62.20;;;;;;6074075;29;20032;-75
2022/12/28 06:07:00;;;;;;;6.13;2.85;;;9.30;62.50;;;;;;6060938;29;20123;-75
2022/12/28 06:10:01;;;;;;;4.97;2.88;;;9.20;62.70;;;;;;6076402;29;20037;-74
2022/12/28 06:13:01;;;;;;;7.00;3.05;;;9.20;62.90;;;;;;6077458;29;20467;-75
2022/12/28 06:16:15;;;;;;;5.00;2.67;;;9.30;63.10;;;;;;6078220;29;20078;-75
2022/12/28 06:19:17;;;;;;;7.40;2.80;;;9.30;63.40;;;;;;6061870;29;20063;-76
2022/12/28 06:22:17;;;;;;;8.63;3.15;;;9.30;63.50;;;;;;6061553;29;20040;-75
2022/12/28 06:25:18;;;;;;;7.40;3.92;;;9.30;63.70;;;;;;6055760;29;20063;-75
2022/12/28 06:28:19;;;;;;;9.07;3.85;;;9.30;63.80;;;;;;6077025;29;20041;-76
2022/12/28 06:31:31;;;;;;;12.05;4.65;;;9.30;64.10;;;;;;6059397;29;20052;-75
2022/12/28 06:34:32;;;;;;;13.20;5.13;;;9.20;64.50;;;;;;6059827;29;20071;-75
2022/12/28 06:37:32;;;;;;;8.77;4.55;;;9.20;65.10;;;;;;6046503;29;20044;-75
2022/12/28 06:40:33;;;;;;;10.95;4.75;;;9.20;66.40;;;;;;6077593;29;20047;-75
2022/12/28 06:43:36;;;;;;;10.77;5.03;;;9.10;65.90;;;;;;6076126;29;20124;-75
2022/12/28 06:46:37;;;;;;;10.35;4.20;;;9.10;66.30;;;;;;6061154;29;20048;-75
2022/12/28 06:49:38;;;;;;;12.00;5.50;;;9.10;66.60;;;;;;6077294;29;20180;-75
2022/12/28 06:52:38;;;;;;;16.05;5.90;;;9.10;66.90;;;;;;6060260;29;20092;-75
2022/12/28 06:55:39;;;;;;;16.90;6.60;;;9.00;67.00;;;;;;6075238;29;20073;-75
2022/12/28 06:58:40;;;;;;;16.15;6.68;;;9.00;67.30;;;;;;6074327;29;20032;-75
2022/12/28 07:01:43;;;;;;;15.00;6.57;;;8.90;67.60;;;;;;6058976;29;20080;-75
2022/12/28 07:04:44;;;;;;;13.82;5.35;;;8.90;67.90;;;;;;6060644;29;20045;-76
2022/12/28 07:07:45;;;;;;;12.75;5.80;;;8.90;67.90;;;;;;6060756;29;20121;-76
2022/12/28 07:10:46;;;;;;;15.43;6.40;;;8.90;68.10;;;;;;6061837;29;20052;-75
2022/12/28 07:13:47;;;;;;;15.95;5.97;;;8.80;68.20;;;;;;6078302;29;20713;-75
2022/12/28 07:16:48;;;;;;;20.80;5.95;;;8.80;69.30;;;;;;6067762;29;20049;-76
2022/12/28 07:19:50;;;;;;;15.60;6.60;;;8.70;68.70;;;;;;6049278;29;20052;-75
2022/12/28 07:22:52;;;;;;;12.13;5.07;;;8.70;69.00;;;;;;6060997;29;20041;-75
2022/12/28 07:25:52;;;;;;;19.90;6.88;;;8.60;69.20;;;;;;6062142;29;20048;-75
2022/12/28 07:28:57;;;;;;;15.02;6.78;;;8.60;69.40;;;;;;6055947;29;20048;-76
2022/12/28 07:31:58;;;;;;;14.95;5.93;;;8.60;69.60;;;;;;6077930;29;20048;-76
2022/12/28 07:34:59;;;;;;;15.10;5.72;;;8.70;69.80;;;;;;6061917;29;20486;-75
2022/12/28 07:37:59;;;;;;;17.10;6.55;;;8.70;69.70;;;;;;6075719;29;20029;-76
2022/12/28 07:41:22;;;;;;;13.75;4.93;;;8.70;69.60;;;;;;6062842;29;20351;-75
2022/12/28 07:44:22;;;;;;;10.82;4.82;;;8.70;69.60;;;;;;6073018;29;20459;-76
2022/12/28 07:47:23;;;;;;;13.60;5.75;;;8.70;69.50;;;;;;6071865;29;20048;-76
2022/12/28 07:50:24;;;;;;;9.23;4.90;;;8.70;69.40;;;;;;6074072;29;20104;-76
2022/12/28 07:53:25;;;;;;;20.23;5.75;;;8.70;69.30;;;;;;6073110;29;20039;-73
2022/12/28 07:56:27;;;;;;;13.85;5.10;;;8.70;68.80;;;;;;6032759;29;20366;-75
2022/12/28 07:59:28;;;;;;;10.55;4.53;;;8.60;69.50;;;;;;6051576;29;20033;-75
2022/12/28 08:02:29;;;;;;;13.68;5.85;;;8.60;69.50;;;;;;6036118;29;20033;-76
2022/12/28 08:05:32;;;;;;;16.85;5.45;;;8.60;69.50;;;;;;6036276;29;20459;-76
2022/12/28 08:08:37;;;;;;;11.23;4.85;;;8.50;69.80;;;;;;6051361;29;20037;-75
2022/12/28 08:11:44;;;;;;;19.58;6.10;;;8.60;70.30;;;;;;6017668;29;20062;-74
2022/12/28 08:14:45;;;;;;;16.92;5.90;;;8.70;70.20;;;;;;6019791;29;20041;-75
2022/12/28 08:17:45;;;;;;;16.15;7.50;;;8.80;70.20;;;;;;6024863;29;20501;-74
2022/12/28 08:20:46;;;;;;;11.57;5.80;;;8.80;70.10;;;;;;6035145;29;20774;-75
2022/12/28 08:23:48;;;;;;;18.55;6.22;;;8.90;69.90;;;;;;6020057;29;20045;-74
2022/12/28 08:26:49;;;;;;;17.20;6.55;;;8.90;69.90;;;;;;6037124;29;20040;-73
2022/12/28 08:29:50;;;;;;;17.25;7.20;;;8.90;70.00;;;;;;6052879;29;20052;-72
2022/12/28 08:32:50;;;;;;;13.32;6.07;;;8.90;69.90;;;;;;6052252;29;20037;-72
2022/12/28 08:35:55;;;;;;;13.27;6.18;;;9.00;69.90;;;;;;6035760;29;20045;-73
2022/12/28 08:38:56;;;;;;;11.43;5.78;;;9.10;69.70;;;;;;6033310;29;20112;-73
2022/12/28 08:41:57;;;;;;;4.97;2.05;;;9.20;69.60;;;;;;6017474;29;20074;-73
2022/12/28 08:44:58;;;;;;;3.17;1.75;;;9.30;68.40;;;;;;6017284;29;20055;-74
2022/12/28 08:47:58;;;;;;;3.42;2.08;;;9.30;66.60;;;;;;6032519;29;20048;-74
2022/12/28 08:51:09;;;;;;;10.52;4.43;;;9.40;65.40;;;;;;6048872;29;20064;-72
2022/12/28 08:54:12;;;;;;;15.27;5.43;;;9.40;65.20;;;;;;6034183;29;20467;-73
2022/12/28 08:57:13;;;;;;;15.35;6.03;;;9.50;64.80;;;;;;6037197;29;20040;-78
2022/12/28 09:00:14;;;;;;;15.25;6.13;;;9.60;65.00;;;;;;6030815;29;20060;-78
2022/12/28 09:03:15;;;;;;;17.75;7.70;;;9.60;65.20;;;;;;6048519;29;20076;-73
2022/12/28 09:06:19;;;;;;;12.98;6.18;;;9.60;65.40;;;;;;6032850;29;20049;-72
2022/12/28 09:09:20;;;;;;;16.83;7.47;;;9.60;65.60;;;;;;6033919;29;20052;-73
2022/12/28 09:12:21;;;;;;;13.82;5.53;;;9.50;65.70;;;;;;6050233;29;20044;-74
2022/12/28 09:15:23;;;;;;;20.52;6.45;;;9.60;66.00;;;;;;6033711;29;20045;-73
2022/12/28 09:18:24;;;;;;;20.55;8.55;;;9.60;65.90;;;;;;6035337;29;20041;-74
2022/12/28 09:21:28;;;;;;;26.17;9.77;;;9.60;65.90;;;;;;6050419;29;20033;-75
2022/12/28 09:24:29;;;;;;;18.88;8.00;;;9.60;65.90;;;;;;6031798;29;20100;-73
2022/12/28 09:27:30;;;;;;;18.85;8.00;;;9.60;66.00;;;;;;6032387;29;20041;-74
2022/12/28 09:30:31;;;;;;;17.00;6.30;;;9.60;66.20;;;;;;6032314;29;20041;-74
2022/12/28 09:36:52;;;;;;;17.05;6.40;;;9.60;66.30;;;;;;6047425;29;20077;-74
2022/12/28 09:39:52;;;;;;;23.23;7.88;;;9.50;66.20;;;;;;6032773;29;20093;-73
2022/12/28 09:42:54;;;;;;;19.98;7.97;;;9.50;66.40;;;;;;6047918;29;20041;-75
2022/12/28 09:45:55;;;;;;;17.63;6.80;;;9.50;66.50;;;;;;6047542;29;20448;-73
2022/12/28 09:48:58;;;;;;;28.25;8.70;;;9.50;66.50;;;;;;6018146;29;20056;-73
2022/12/28 09:52:33;;;;;;;22.45;9.02;;;9.50;66.70;;;;;;6052314;29;20449;-74
2022/12/28 09:55:37;;;;;;;20.80;9.48;;;9.40;66.70;;;;;;6033035;29;20139;-73
2022/12/28 09:58:43;;;;;;;21.95;8.00;;;9.40;66.70;;;;;;6034257;29;20045;-73
2022/12/28 10:01:49;;;;;;;16.90;7.75;;;9.40;66.80;;;;;;6030779;29;20502;-74
2022/12/28 10:04:50;;;;;;;25.17;11.57;;;9.50;66.80;;;;;;6039352;29;20084;-73
2022/12/28 10:07:54;;;;;;;22.27;8.68;;;9.40;67.00;;;;;;6032936;29;20041;-75
2022/12/28 10:11:01;;;;;;;23.00;10.23;;;9.50;67.40;;;;;;6034505;29;20044;-75
2022/12/28 10:14:14;;;;;;;18.42;8.85;;;9.60;67.40;;;;;;6034051;29;20040;-73
2022/12/28 10:17:19;;;;;;;27.25;11.35;;;9.70;67.50;;;;;;6051006;29;20108;-72
2022/12/28 10:20:21;;;;;;;36.40;13.77;;;9.80;67.20;;;;;;6055502;29;20088;-73
2022/12/28 10:23:26;;;;;;;25.00;10.60;;;10.00;66.70;;;;;;6039745;29;20037;-74
2022/12/28 10:26:27;;;;;;;31.73;11.15;;;10.00;66.60;;;;;;6038716;29;20045;-75
2022/12/28 10:29:30;;;;;;;39.35;15.10;;;10.00;66.60;;;;;;6041637;29;20096;-74
2022/12/28 10:32:49;;;;;;;56.42;20.80;;;10.00;66.80;;;;;;6049702;29;20051;-74
2022/12/28 10:35:53;;;;;;;48.00;18.70;;;10.00;66.80;;;;;;6050848;29;20049;-74
2022/12/28 10:38:55;;;;;;;48.95;16.55;;;10.10;66.70;;;;;;6031047;29;20041;-75
2022/12/28 10:41:59;;;;;;;42.13;14.43;;;10.10;66.90;;;;;;6020394;29;20041;-75
2022/12/28 10:45:06;;;;;;;38.10;13.88;;;10.30;67.10;;;;;;6025031;29;20503;-75
2022/12/28 10:48:17;;;;;;;33.08;14.20;;;10.60;66.50;;;;;;6035772;29;20051;-77
2022/12/28 10:51:20;;;;;;;32.88;14.77;;;10.90;65.80;;;;;;6051475;29;20446;-74
2022/12/28 10:54:23;;;;;;;36.58;15.73;;;11.20;65.10;;;;;;6053605;29;20048;-75
2022/12/28 10:57:28;;;;;;;32.75;14.15;;;11.60;64.10;;;;;;6038901;29;20112;-74
2022/12/28 11:00:30;;;;;;;38.70;15.88;;;12.00;63.10;;;;;;6031649;29;20041;-81
2022/12/28 11:03:34;;;;;;;35.15;12.75;;;12.40;62.20;;;;;;6034214;29;20107;-76
2022/12/28 11:06:54;;;;;;;30.65;14.00;;;12.90;60.90;;;;;;6035473;29;20045;-80
2022/12/28 11:10:18;;;;;;;34.72;13.57;;;13.30;59.80;;;;;;6037185;29;20531;-77
2022/12/28 11:13:19;;;;;;;26.42;12.10;;;13.90;58.40;;;;;;6053381;29;20041;-78
2022/12/28 11:16:20;;;;;;;24.30;11.32;;;14.20;56.80;;;;;;6036784;29;20434;-78
2022/12/28 11:19:23;;;;;;;22.73;11.23;;;14.40;56.20;;;;;;6051753;29;20089;-78
2022/12/28 11:22:27;;;;;;;28.77;11.40;;;14.60;56.30;;;;;;6037913;29;20508;-79
2022/12/28 11:25:32;;;;;;;24.30;10.30;;;15.00;55.20;;;;;;6026470;29;20112;-79
2022/12/28 11:28:33;;;;;;;24.38;9.88;;;15.40;54.40;;;;;;6053028;29;20108;-78
2022/12/28 11:31:39;;;;;;;21.50;9.20;;;15.70;53.30;;;;;;6023716;29;20041;-77
2022/12/28 11:34:40;;;;;;;29.90;12.60;;;16.10;53.00;;;;;;6051040;29;20045;-76
2022/12/28 11:37:52;;;;;;;16.25;8.45;;;16.40;51.60;;;;;;6041242;29;20100;-78
2022/12/28 11:40:54;;;;;;;18.45;8.75;;;16.60;50.50;;;;;;6048777;29;20041;-78
2022/12/28 11:43:56;;;;;;;25.02;10.63;;;16.60;50.00;;;;;;6016385;29;20145;-78
2022/12/28 11:47:35;;;;;;;22.13;8.13;;;16.20;50.50;;;;;;6051996;29;20064;-79
2022/12/28 11:50:40;;;;;;;17.55;8.07;;;15.70;51.30;;;;;;5989573;29;20067;-77
2022/12/28 11:53:44;;;;;;;23.85;9.50;;;15.50;52.30;;;;;;5991375;29;20113;-78
2022/12/28 11:56:45;;;;;;;24.42;10.15;;;15.20;52.70;;;;;;5990688;29;20057;-79
2022/12/28 11:59:46;;;;;;;26.35;11.18;;;14.90;53.20;;;;;;5968202;29;20204;-78
2022/12/28 12:02:50;;;;;;;11.18;5.95;;;14.70;53.50;;;;;;5982194;29;20046;-80
2022/12/28 12:05:51;;;;;;;17.35;6.85;;;14.40;53.80;;;;;;5969487;29;20053;-78
2022/12/28 12:08:52;;;;;;;23.85;8.77;;;14.20;53.90;;;;;;5983720;29;20046;-79
2022/12/28 12:11:59;;;;;;;19.23;9.15;;;13.90;54.40;;;;;;5983203;29;20039;-78
2022/12/28 12:15:02;;;;;;;23.55;9.68;;;13.70;55.00;;;;;;5968954;29;20358;-78
2022/12/28 12:18:05;;;;;;;34.60;13.13;;;13.50;55.60;;;;;;5967761;29;20402;-78
2022/12/28 12:21:07;;;;;;;20.05;6.85;;;13.40;55.90;;;;;;5981596;29;20167;-80
2022/12/28 12:24:17;;;;;;;20.73;6.95;;;13.30;56.20;;;;;;5965736;29;20593;-79
2022/12/28 12:27:26;;;;;;;14.90;7.53;;;13.20;56.50;;;;;;5994595;29;20045;-78
2022/12/28 12:30:29;;;;;;;31.83;11.57;;;13.20;56.80;;;;;;6016679;29;20045;-80
2022/12/28 12:33:34;;;;;;;20.20;7.53;;;13.20;57.30;;;;;;6005436;29;20060;-79
2022/12/28 12:36:41;;;;;;;28.65;8.70;;;13.30;56.80;;;;;;6006755;29;20054;-81
2022/12/28 12:39:48;;;;;;;21.30;9.38;;;13.30;56.60;;;;;;6004381;29;20049;-80
2022/12/28 12:43:17;;;;;;;11.88;5.75;;;13.30;56.20;;;;;;5999356;29;20041;-80
2022/12/28 12:46:58;;;;;;;20.15;6.57;;;13.40;56.30;;;;;;5998649;29;20052;-81
2022/12/28 12:50:36;;;;;;;16.55;8.07;;;13.50;55.80;;;;;;5981146;29;20480;-79
2022/12/28 12:53:45;;;;;;;14.60;6.90;;;13.50;55.80;;;;;;5999484;29;20469;-81
2022/12/28 12:57:01;;;;;;;11.45;5.95;;;13.50;55.60;;;;;;5996056;29;20045;-81
2022/12/28 13:00:04;;;;;;;16.17;5.70;;;13.60;55.70;;;;;;5994933;29;20046;-81
2022/12/28 13:03:20;;;;;;;15.40;6.30;;;13.60;55.00;;;;;;5997991;29;20073;-79
2022/12/28 13:06:25;;;;;;;11.27;5.55;;;13.60;54.70;;;;;;6003181;29;20045;-81
2022/12/28 13:09:29;;;;;;;16.27;5.93;;;13.70;54.60;;;;;;5991343;29;20048;-79
2022/12/28 13:12:30;;;;;;;18.08;6.03;;;13.70;54.30;;;;;;5992907;29;20045;-80
2022/12/28 13:15:31;;;;;;;8.93;3.95;;;13.70;54.20;;;;;;5998688;29;20054;-81
2022/12/28 13:18:32;;;;;;;14.23;5.05;;;13.70;53.80;;;;;;6001573;29;20095;-80
2022/12/28 13:21:42;;;;;;;9.43;4.63;;;13.70;53.60;;;;;;6001521;29;20224;-79
2022/12/28 13:24:44;;;;;;;10.55;5.68;;;13.70;53.70;;;;;;6001042;29;20436;-79
2022/12/28 13:27:45;;;;;;;13.32;5.32;;;13.70;53.70;;;;;;5986797;29;20044;-78
2022/12/28 13:31:09;;;;;;;12.27;5.55;;;13.80;53.70;;;;;;6003334;29;20046;-78
2022/12/28 13:34:26;;;;;;;16.83;7.00;;;13.90;54.40;;;;;;6017763;29;20046;-78
2022/12/28 13:37:27;;;;;;;8.82;4.80;;;13.90;53.80;;;;;;5994668;29;20048;-78
2022/12/28 13:40:29;;;;;;;10.68;5.43;;;14.00;53.70;;;;;;6000778;29;20140;-78
2022/12/28 13:43:52;;;;;;;9.65;4.10;;;14.00;53.60;;;;;;6001210;29;20060;-78
2022/12/28 13:47:01;;;;;;;11.57;4.93;;;14.10;53.60;;;;;;5998693;29;20038;-79
2022/12/28 13:50:13;;;;;;;10.57;4.75;;;14.10;53.70;;;;;;6001324;29;20066;-78
2022/12/28 13:53:20;;;;;;;16.45;7.18;;;14.10;53.60;;;;;;6000290;29;20045;-78
2022/12/28 13:56:22;;;;;;;13.85;6.95;;;14.20;53.60;;;;;;6005816;29;20528;-78
2022/12/28 13:59:23;;;;;;;13.80;5.55;;;14.20;53.30;;;;;;6006170;29;20064;-78
2022/12/28 14:02:26;;;;;;;19.58;5.72;;;14.20;53.40;;;;;;5990009;29;20038;-78
2022/12/28 14:05:29;;;;;;;10.40;4.68;;;14.20;53.50;;;;;;6004609;29;20030;-79
2022/12/28 14:08:34;;;;;;;7.97;4.97;;;14.20;53.50;;;;;;6008961;29;20057;-78
2022/12/28 14:11:35;;;;;;;11.02;4.38;;;14.10;53.60;;;;;;6007847;29;20038;-79
2022/12/28 14:14:36;;;;;;;9.68;4.75;;;14.20;53.70;;;;;;6008069;29;20062;-78
2022/12/28 14:17:39;;;;;;;13.23;6.00;;;14.20;53.60;;;;;;6008040;29;20118;-77
2022/12/28 14:20:51;;;;;;;15.43;5.80;;;14.20;53.50;;;;;;6004515;29;20046;-78
2022/12/28 14:24:03;;;;;;;9.18;4.32;;;14.20;53.70;;;;;;5991446;29;20042;-78
2022/12/28 14:27:04;;;;;;;11.68;4.70;;;14.10;53.80;;;;;;5991430;29;20481;-78
2022/12/28 14:30:07;;;;;;;10.98;4.47;;;14.10;53.70;;;;;;6006386;29;20046;-80
2022/12/28 14:33:17;;;;;;;11.32;5.15;;;14.00;53.60;;;;;;5990907;29;20058;-77
2022/12/28 14:36:21;;;;;;;9.07;4.93;;;13.90;53.80;;;;;;5983268;29;20057;-77
2022/12/28 14:39:36;;;;;;;6.63;3.72;;;13.80;54.40;;;;;;5982999;29;20053;-77
2022/12/28 14:42:37;;;;;;;7.30;3.83;;;13.70;53.90;;;;;;5982294;29;20547;-77
2022/12/28 14:45:43;;;;;;;9.40;4.30;;;13.60;54.10;;;;;;5982734;29;20046;-77
2022/12/28 14:48:46;;;;;;;9.98;3.78;;;13.60;54.30;;;;;;5998190;29;20052;-77
2022/12/28 14:51:47;;;;;;;9.45;4.72;;;13.50;54.40;;;;;;6033941;29;20091;-77
2022/12/28 14:54:52;;;;;;;13.60;4.35;;;13.50;54.40;;;;;;6035453;29;20041;-76
2022/12/28 14:58:01;;;;;;;8.20;3.92;;;13.40;54.60;;;;;;6052588;29;20053;-79
2022/12/28 15:01:04;;;;;;;;;;;13.40;54.70;;;;;;6058771;29;20043;-79
2022/12/28 15:04:05;;;;;;;7.80;3.78;;;13.50;54.80;;;;;;6034118;29;19982;-80
2022/12/28 15:07:08;;;;;;;9.50;4.72;;;13.40;54.70;;;;;;6034466;29;20041;-79
2022/12/28 15:10:09;;;;;;;11.57;4.40;;;13.50;55.00;;;;;;6051216;29;20045;-79
2022/12/28 15:13:11;;;;;;;13.10;4.72;;;13.50;55.00;;;;;;6051266;29;20041;-78
2022/12/28 15:16:13;;;;;;;6.90;4.13;;;13.50;55.00;;;;;;6053610;29;20432;-79
2022/12/28 15:19:13;;;;;;;8.48;3.97;;;13.50;55.10;;;;;;6054151;29;20041;-76
2022/12/28 15:22:15;;;;;;;10.43;4.05;;;13.50;55.10;;;;;;6020786;29;20428;-78
2022/12/28 15:25:16;;;;;;;7.45;3.95;;;13.50;55.20;;;;;;6018641;29;20379;-80
2022/12/28 15:28:16;;;;;;;6.85;3.72;;;13.50;55.10;;;;;;6053437;29;20060;-78
2022/12/28 15:31:19;;;;;;;9.40;4.55;;;13.50;55.00;;;;;;6054288;29;20045;-76
2022/12/28 15:34:20;;;;;;;14.75;6.43;;;13.50;55.10;;;;;;6022155;29;20059;-76
2022/12/28 15:37:21;;;;;;;9.90;5.07;;;13.50;55.00;;;;;;6015137;29;20045;-77
2022/12/28 15:40:22;;;;;;;6.75;3.75;;;13.50;54.80;;;;;;6054150;29;20056;-78
2022/12/28 15:43:23;;;;;;;12.82;5.35;;;13.50;54.50;;;;;;6039389;29;20036;-78
2022/12/28 15:46:24;;;;;;;8.05;4.32;;;13.40;54.20;;;;;;6038826;29;20447;-78
2022/12/28 15:49:25;;;;;;;12.07;4.93;;;13.40;54.20;;;;;;6029975;29;20053;-78
2022/12/28 15:52:26;;;;;;;6.53;2.88;;;13.40;54.10;;;;;;6014582;29;20074;-78
2022/12/28 15:55:27;;;;;;;9.38;4.20;;;13.40;53.90;;;;;;6030449;29;20038;-77
2022/12/28 15:58:29;;;;;;;12.50;5.78;;;13.40;53.80;;;;;;6010363;29;20060;-79
2022/12/28 16:01:30;;;;;;;9.75;3.97;;;13.40;53.70;;;;;;6021627;29;20551;-78
2022/12/28 16:04:31;;;;;;;8.52;3.17;;;13.40;53.80;;;;;;6028327;29;20404;-76
2022/12/28 16:07:32;;;;;;;10.02;3.78;;;13.40;53.90;;;;;;6030204;29;20155;-79
2022/12/28 16:10:33;;;;;;;7.70;3.90;;;13.40;54.00;;;;;;6028983;29;20034;-79
2022/12/28 16:13:34;;;;;;;10.20;4.65;;;13.40;54.20;;;;;;6012890;29;20151;-78
2022/12/28 16:16:37;;;;;;;11.40;4.80;;;13.40;54.20;;;;;;6028922;29;20706;-79
2022/12/28 16:19:38;;;;;;;9.88;4.75;;;13.40;54.30;;;;;;6029717;29;20117;-76
2022/12/28 16:22:39;;;;;;;8.95;4.25;;;13.40;54.40;;;;;;6028722;29;20033;-78
2022/12/28 16:25:48;;;;;;;8.93;4.57;;;13.30;54.40;;;;;;6013851;29;20495;-78